createdAt,value
2024-05-09T00:03:49.734Z,96483.22
2024-05-09T00:08:53.947Z,96480.47
2024-05-09T00:14:00.549Z,96472.91
2024-05-09T00:19:05.011Z,96463.03
2024-05-09T00:24:09.642Z,96467.91
2024-05-09T00:29:14.236Z,96455.84
2024-05-09T00:34:18.550Z,96454.69
2024-05-09T00:39:23.726Z,96454.59
2024-05-09T00:44:28.332Z,96447.09
2024-05-09T00:49:33.300Z,96451.78
2024-05-09T00:54:38.026Z,96448.03
2024-05-09T00:59:42.320Z,96443.75
2024-05-09T01:04:46.925Z,96436.94
2024-05-09T01:09:51.271Z,96436.38
2024-05-09T01:14:55.937Z,96447.56
2024-05-09T01:20:00.745Z,96442.81
2024-05-09T01:25:05.104Z,96442.88
2024-05-09T01:30:16.931Z,96446.00
2024-05-09T01:35:25.240Z,96451.72
2024-05-09T01:40:37.171Z,96457.81
2024-05-09T01:45:44.451Z,96456.41
2024-05-09T01:50:48.939Z,96455.06
2024-05-09T01:55:53.496Z,96457.81
2024-05-09T02:00:57.804Z,96456.69
2024-05-09T02:06:02.376Z,96455.69
2024-05-09T02:11:08.991Z,96452.66
2024-05-09T02:16:13.548Z,96461.13
2024-05-09T02:21:17.930Z,96453.09
2024-05-09T02:26:22.311Z,96453.41
2024-05-09T02:31:26.598Z,96454.16
2024-05-09T02:36:31.064Z,96448.22
2024-05-09T02:41:35.418Z,96454.13
2024-05-09T02:46:40.028Z,96447.09
2024-05-09T02:51:44.230Z,96451.47
2024-05-09T02:56:48.423Z,96447.63
2024-05-09T03:01:54.205Z,96450.78
2024-05-09T03:06:58.654Z,96445.06
2024-05-09T03:12:04.928Z,96449.75
2024-05-09T03:17:09.282Z,96448.91
2024-05-09T03:22:14.212Z,96450.13
2024-05-09T03:27:19.661Z,96449.84
2024-05-09T03:32:25.700Z,96453.09
2024-05-09T03:37:30.023Z,96449.38
2024-05-09T03:42:34.301Z,96448.50
2024-05-09T03:47:38.598Z,96449.59
2024-05-09T03:52:43.650Z,96444.38
2024-05-09T03:57:48.443Z,96449.75
2024-05-09T04:02:52.983Z,96450.38
2024-05-09T04:07:57.667Z,96458.72
2024-05-09T04:13:02.174Z,96463.78
2024-05-09T04:18:06.917Z,96457.84
2024-05-09T04:23:11.840Z,96466.50
2024-05-09T04:28:16.825Z,96467.19
2024-05-09T04:33:21.416Z,96475.31
2024-05-09T04:38:25.919Z,96474.91
2024-05-09T04:43:30.228Z,96470.75
2024-05-09T04:48:34.723Z,96483.44
2024-05-09T04:53:39.275Z,96487.66
2024-05-09T04:58:44.283Z,96489.41
2024-05-09T05:03:49.174Z,96486.66
2024-05-09T05:08:53.777Z,96482.91
2024-05-09T05:13:58.324Z,96479.47
2024-05-09T05:19:07.551Z,96476.25
2024-05-09T05:24:22.044Z,96481.00
2024-05-09T05:29:29.038Z,96475.38
2024-05-09T05:34:33.644Z,96481.09
2024-05-09T05:39:38.612Z,96478.88
2024-05-09T05:44:44.723Z,96489.69
2024-05-09T05:49:49.269Z,96478.00
2024-05-09T05:54:54.162Z,96483.03
2024-05-09T05:59:58.341Z,96478.66
2024-05-09T06:05:06.591Z,96476.53
2024-05-09T06:10:17.388Z,96465.34
2024-05-09T06:15:26.066Z,96470.91
2024-05-09T06:20:35.885Z,96477.38
2024-05-09T06:25:42.708Z,96461.75
2024-05-09T06:30:47.291Z,96464.41
2024-05-09T06:35:54.630Z,96466.06
2024-05-09T06:40:58.852Z,96455.00
2024-05-09T06:46:03.111Z,96471.47
2024-05-09T06:51:07.459Z,96472.28
2024-05-09T06:56:12.055Z,96473.06
2024-05-09T07:01:16.378Z,96464.78
2024-05-09T07:06:20.826Z,96461.56
2024-05-09T07:11:25.131Z,96464.78
2024-05-09T07:16:31.129Z,96458.41
2024-05-09T07:21:35.820Z,96467.31
2024-05-09T07:26:40.215Z,96471.28
2024-05-09T07:31:45.434Z,96459.72
2024-05-09T07:36:50.386Z,96462.00
2024-05-09T07:41:57.110Z,96462.03
2024-05-09T07:57:16.469Z,96443.53
2024-05-09T08:02:21.378Z,96450.53
2024-05-09T08:07:26.698Z,96455.19
2024-05-09T08:12:30.908Z,96456.19
2024-05-09T08:17:35.502Z,96441.88
2024-05-09T08:22:39.894Z,96446.94
2024-05-09T08:27:44.647Z,96441.56
2024-05-09T08:32:49.003Z,96438.25
2024-05-09T08:37:53.642Z,96432.69
2024-05-09T08:42:58.574Z,96440.91
2024-05-09T08:48:05.760Z,96434.75
2024-05-09T08:53:10.530Z,96432.91
2024-05-09T08:58:15.408Z,96427.56
2024-05-09T09:03:20.404Z,96423.91
2024-05-09T09:08:24.741Z,96420.66
2024-05-09T09:13:28.937Z,96416.22
2024-05-09T09:18:34.530Z,96419.13
2024-05-09T09:23:38.907Z,96412.09
2024-05-09T09:28:44.960Z,96423.81
2024-05-09T09:33:51.057Z,96407.53
2024-05-09T09:38:55.459Z,96426.31
2024-05-09T09:43:59.793Z,96421.59
2024-05-09T09:49:06.809Z,96429.59
2024-05-09T09:54:11.313Z,96432.13
2024-05-09T09:59:15.531Z,96433.84
2024-05-09T10:04:20.589Z,96434.66
2024-05-09T10:09:24.938Z,96432.00
2024-05-09T10:14:31.051Z,96430.59
2024-05-09T10:19:35.359Z,96426.34
2024-05-09T10:24:43.492Z,96422.56
2024-05-09T10:29:48.574Z,96421.59
2024-05-09T10:34:54.711Z,96420.97
2024-05-09T10:39:59.431Z,96423.09
2024-05-09T10:45:06.835Z,96420.84
2024-05-09T10:50:18.537Z,96415.53
2024-05-09T10:55:29.881Z,96409.69
2024-05-09T11:00:36.519Z,96409.50
2024-05-09T11:05:41.416Z,96403.94
2024-05-09T11:10:47.094Z,96405.06
2024-05-09T11:15:51.395Z,96397.59
2024-05-09T11:20:56.835Z,96386.13
2024-05-09T11:26:01.435Z,96397.53
2024-05-09T11:31:07.092Z,96404.97
2024-05-09T11:36:12.165Z,96395.81
2024-05-09T11:41:16.462Z,96405.47
2024-05-09T11:46:20.914Z,96395.00
2024-05-09T11:51:25.318Z,96394.50
2024-05-09T11:56:29.572Z,96393.97
2024-05-09T12:01:35.186Z,96388.97
2024-05-09T12:06:39.573Z,96378.91
2024-05-09T12:11:44.671Z,96380.00
2024-05-09T12:16:48.974Z,96373.66
2024-05-09T12:21:53.731Z,96374.59
2024-05-09T12:26:58.571Z,96367.53
2024-05-09T12:32:02.831Z,96368.63
2024-05-09T12:37:07.280Z,96368.28
2024-05-09T12:42:14.641Z,96361.13
2024-05-09T12:47:26.560Z,96362.50
2024-05-09T12:52:31.301Z,96351.66
2024-05-09T12:57:35.549Z,96344.16
2024-05-09T13:02:40.364Z,96346.44
2024-05-09T13:07:47.855Z,96338.91
2024-05-09T13:12:52.419Z,96335.44
2024-05-09T13:17:59.441Z,96330.44
2024-05-09T13:23:07.950Z,96320.72
2024-05-09T13:28:13.194Z,96313.91
2024-05-09T13:33:17.579Z,96318.09
2024-05-09T13:38:22.569Z,96309.00
2024-05-09T13:43:27.046Z,96315.47
2024-05-09T13:48:31.925Z,96302.25
2024-05-09T13:53:36.340Z,96304.41
2024-05-09T13:58:40.528Z,96304.19
2024-05-09T14:03:44.906Z,96295.78
2024-05-09T14:08:49.778Z,96286.25
2024-05-09T14:13:54.407Z,96282.69
2024-05-09T14:19:01.965Z,96271.59
2024-05-09T14:24:06.223Z,96275.66
2024-05-09T14:29:10.608Z,96272.22
2024-05-09T14:34:15.766Z,96265.25
2024-05-09T14:39:20.359Z,96260.97
2024-05-09T14:44:24.483Z,96262.69
2024-05-09T14:49:28.718Z,96254.22
2024-05-09T14:54:33.132Z,96250.66
2024-05-09T14:59:37.389Z,96252.50
2024-05-09T15:04:42.028Z,96247.50
2024-05-09T15:09:47.551Z,96254.56
2024-05-09T15:14:52.627Z,96248.56
2024-05-09T15:19:56.952Z,96230.72
2024-05-09T15:25:01.312Z,96231.91
2024-05-09T15:30:10.356Z,96237.19
2024-05-09T15:35:14.965Z,96233.97
2024-05-09T15:40:26.843Z,96228.09
2024-05-09T15:45:41.005Z,96223.06
2024-05-09T15:50:47.250Z,96228.00
2024-05-09T15:55:51.781Z,96219.25
2024-05-09T16:00:56.614Z,96217.47
2024-05-09T16:06:01.184Z,96220.44
2024-05-09T16:11:05.596Z,96230.38
2024-05-09T16:16:10.262Z,96213.09
2024-05-09T16:21:15.024Z,96208.69
2024-05-09T16:26:19.550Z,96209.56
2024-05-09T16:31:24.464Z,96213.28
2024-05-09T16:36:29.104Z,96210.06
2024-05-09T16:41:33.657Z,96201.81
2024-05-09T16:46:37.994Z,96204.84
2024-05-09T16:51:42.468Z,96203.25
2024-05-09T16:56:46.744Z,96191.28
2024-05-09T17:01:51.151Z,96200.41
2024-05-09T17:06:55.618Z,96193.28
2024-05-09T17:12:00.412Z,96193.88
2024-05-09T17:17:04.949Z,96187.78
2024-05-09T17:22:09.819Z,96194.25
2024-05-09T17:27:14.518Z,96187.94
2024-05-09T17:32:19.816Z,96187.28
2024-05-09T17:37:24.551Z,96197.22
2024-05-09T17:42:29.385Z,96197.66
2024-05-09T17:47:33.837Z,96201.69
2024-05-09T17:52:38.488Z,96202.13
2024-05-09T17:57:43.896Z,96207.53
2024-05-09T18:02:48.885Z,96208.28
2024-05-09T18:07:55.965Z,96209.19
2024-05-09T18:13:01.203Z,96206.88
2024-05-09T18:18:05.829Z,96207.56
2024-05-09T18:23:10.726Z,96204.75
2024-05-09T18:28:15.231Z,96207.84
2024-05-09T18:33:21.726Z,96201.47
2024-05-09T18:38:31.915Z,96215.69
2024-05-09T18:43:44.928Z,96206.94
2024-05-09T18:48:51.561Z,96214.56
2024-05-09T18:53:56.157Z,96219.81
2024-05-09T18:59:00.713Z,96221.53
2024-05-09T19:04:05.752Z,96226.41
2024-05-09T19:09:10.199Z,96235.06
2024-05-09T19:14:14.660Z,96234.94
2024-05-09T19:19:19.151Z,96244.41
2024-05-09T19:24:24.319Z,96254.16
2024-05-09T19:29:28.442Z,96260.38
2024-05-09T19:34:32.621Z,96259.03
2024-05-09T19:39:37.484Z,96256.88
2024-05-09T19:44:42.406Z,96266.56
2024-05-09T19:49:47.157Z,96268.19
2024-05-09T19:54:52.979Z,96265.75
2024-05-09T19:59:58.456Z,96276.22
2024-05-09T20:05:03.818Z,96275.66
2024-05-09T20:10:16.476Z,96271.38
2024-05-09T20:15:27.291Z,96275.09
2024-05-09T20:20:38.096Z,96273.97
2024-05-09T20:25:45.961Z,96277.72
2024-05-09T20:30:50.271Z,96277.75
2024-05-09T20:36:01.495Z,96281.75
2024-05-09T20:41:06.275Z,96283.56
2024-05-09T20:46:10.714Z,96280.59
2024-05-09T20:51:14.931Z,96283.47
2024-05-09T20:56:19.202Z,96276.19
2024-05-09T21:01:23.717Z,96276.94
2024-05-09T21:06:28.009Z,96277.97
2024-05-09T21:11:32.579Z,96277.41
2024-05-09T21:16:38.502Z,96280.03
2024-05-09T21:21:43.309Z,96276.50
2024-05-09T21:26:47.953Z,96281.56
2024-05-09T21:31:52.517Z,96279.13
2024-05-09T21:36:56.880Z,96275.84
2024-05-09T21:42:02.804Z,96274.44
2024-05-09T21:47:08.190Z,96276.50
2024-05-09T21:52:13.874Z,96282.91
2024-05-09T21:57:18.105Z,96271.56
2024-05-09T22:02:22.507Z,96284.41
2024-05-09T22:07:27.327Z,96278.97
2024-05-09T22:12:31.526Z,96281.59
2024-05-09T22:17:36.082Z,96273.81
2024-05-09T22:22:41.496Z,96272.16
2024-05-09T22:27:45.968Z,96271.88
2024-05-09T22:32:50.389Z,96280.44
2024-05-09T22:37:55.335Z,96276.84
2024-05-09T22:42:59.840Z,96282.97
2024-05-09T22:48:04.490Z,96284.31
2024-05-09T22:53:09.395Z,96282.63
2024-05-09T22:58:14.594Z,96271.09
2024-05-09T23:03:21.901Z,96280.09
2024-05-09T23:08:26.848Z,96273.50
2024-05-09T23:13:31.232Z,96269.31
2024-05-09T23:18:35.563Z,96261.97
2024-05-09T23:23:39.756Z,96251.88
2024-05-09T23:28:43.962Z,96254.78
2024-05-09T23:33:51.849Z,96249.41
2024-05-09T23:38:57.727Z,96248.00
2024-05-09T23:44:04.305Z,96247.69
2024-05-09T23:49:09.112Z,96246.06
2024-05-09T23:54:13.826Z,96246.56
2024-05-09T23:59:18.643Z,96240.78
